CheckWX is a tool to help pilots better visualize weather data.  It is not intended as a substitute for an official pre-flight weather briefing.

10:04:00 UTC

LATI METAR
Tirana International Mother Teresa Airport
Tirana, Albania
Current

14 mins ago

LATI 250950Z 24002KT 9999 SCT068 25/06 Q1020 BECMG TL1100 35016KT
Observed
May-25 @ 09:50 UTC
Wind
  • 240° at 2 KTS
Visibility
10,000+ meters
Flight Rules
VFR
Cloud Levels
  • Scattered at 6,800' AGL
Temperature
25°C / 77°F
Dewpoint
C / 43°F
Humidity
30%
Altimeter
30.12" Hg
Pressure
1019.92 hPa
Previous

44 mins ago

LATI 250920Z VRB01KT 9999 FEW064 23/08 Q1020 BECMG TL1100 35016KT
Observed
May-25 @ 09:20 UTC
Wind
  • Variable at 1 KTS
Visibility
10,000+ meters
Flight Rules
VFR
Cloud Levels
  • Few at 6,400' AGL
Temperature
23°C / 73°F
Dewpoint
C / 46°F
Humidity
38%
Altimeter
30.12" Hg
Pressure
1019.92 hPa
Previous

1 hour ago

LATI 250850Z 02005KT 330V060 CAVOK 24/07 Q1021 BECMG 35016KT
Observed
May-25 @ 08:50 UTC
Wind
  • 020° at 5 KTS
Visibility
10,000+ meters
Flight Rules
VFR
Cloud Levels
  • Clear skies
Temperature
24°C / 75°F
Dewpoint
C / 45°F
Humidity
34%
Altimeter
30.15" Hg
Pressure
1020.92 hPa